sensor_id;sensor_type;location;lat;lon;timestamp;temperature;humidity
4453;DHT22;2239;48.152;11.584;2024-02-21T00:00:10;5.80;99.90
4453;DHT22;2239;48.152;11.584;2024-02-21T00:02:37;5.90;99.90
4453;DHT22;2239;48.152;11.584;2024-02-21T00:05:02;5.80;99.90
4453;DHT22;2239;48.152;11.584;2024-02-21T00:07:28;5.80;99.90
4453;DHT22;2239;48.152;11.584;2024-02-21T00:09:53;5.80;99.90
4453;DHT22;2239;48.152;11.584;2024-02-21T00:12:19;5.90;99.90
4453;DHT22;2239;48.152;11.584;2024-02-21T00:14:44;5.90;99.90
4453;DHT22;2239;48.152;11.584;2024-02-21T00:17:10;5.80;99.90
4453;DHT22;2239;48.152;11.584;2024-02-21T00:19:36;5.80;99.90
4453;DHT22;2239;48.152;11.584;2024-02-21T00:22:01;5.80;99.90
4453;DHT22;2239;48.152;11.584;2024-02-21T00:24:27;5.80;99.90
4453;DHT22;2239;48.152;11.584;2024-02-21T00:26:54;5.90;99.90
4453;DHT22;2239;48.152;11.584;2024-02-21T00:29:19;5.80;99.90
4453;DHT22;2239;48.152;11.584;2024-02-21T00:31:45;5.80;99.90
4453;DHT22;2239;48.152;11.584;2024-02-21T00:34:10;5.80;99.90
4453;DHT22;2239;48.152;11.584;2024-02-21T00:36:38;5.80;99.90
4453;DHT22;2239;48.152;11.584;2024-02-21T00:39:03;5.90;99.90
4453;DHT22;2239;48.152;11.584;2024-02-21T00:41:29;5.80;99.90
4453;DHT22;2239;48.152;11.584;2024-02-21T00:43:55;5.80;99.90
4453;DHT22;2239;48.152;11.584;2024-02-21T00:46:20;5.70;99.90
4453;DHT22;2239;48.152;11.584;2024-02-21T00:48:46;5.70;99.90
4453;DHT22;2239;48.152;11.584;2024-02-21T00:51:11;5.60;99.90
4453;DHT22;2239;48.152;11.584;2024-02-21T00:53:37;5.60;99.90
4453;DHT22;2239;48.152;11.584;2024-02-21T00:56:05;5.70;99.90
4453;DHT22;2239;48.152;11.584;2024-02-21T00:58:31;5.70;99.90
4453;DHT22;2239;48.152;11.584;2024-02-21T01:00:56;5.60;99.90
4453;DHT22;2239;48.152;11.584;2024-02-21T01:03:22;5.60;99.90
4453;DHT22;2239;48.152;11.584;2024-02-21T01:05:47;5.60;99.90
4453;DHT22;2239;48.152;11.584;2024-02-21T01:08:13;5.60;99.90
4453;DHT22;2239;48.152;11.584;2024-02-21T01:10:38;5.60;99.90
4453;DHT22;2239;48.152;11.584;2024-02-21T01:13:04;5.60;99.90
4453;DHT22;2239;48.152;11.584;2024-02-21T01:15:29;5.50;99.90
4453;DHT22;2239;48.152;11.584;2024-02-21T01:17:55;5.50;99.90
4453;DHT22;2239;48.152;11.584;2024-02-21T01:20:21;5.60;99.90
4453;DHT22;2239;48.152;11.584;2024-02-21T01:22:47;5.60;99.90
4453;DHT22;2239;48.152;11.584;2024-02-21T01:25:12;5.60;99.90
4453;DHT22;2239;48.152;11.584;2024-02-21T01:27:38;5.60;99.90
4453;DHT22;2239;48.152;11.584;2024-02-21T01:30:04;5.70;99.90
4453;DHT22;2239;48.152;11.584;2024-02-21T01:32:31;5.70;99.90
4453;DHT22;2239;48.152;11.584;2024-02-21T01:34:56;5.60;99.90
4453;DHT22;2239;48.152;11.584;2024-02-21T01:37:22;5.70;99.90
4453;DHT22;2239;48.152;11.584;2024-02-21T01:39:47;5.70;99.90
4453;DHT22;2239;48.152;11.584;2024-02-21T01:42:14;5.70;99.90
4453;DHT22;2239;48.152;11.584;2024-02-21T01:44:40;5.70;99.90
4453;DHT22;2239;48.152;11.584;2024-02-21T01:47:07;5.70;99.90
4453;DHT22;2239;48.152;11.584;2024-02-21T01:49:33;5.80;99.90
4453;DHT22;2239;48.152;11.584;2024-02-21T01:51:59;5.70;99.90
4453;DHT22;2239;48.152;11.584;2024-02-21T01:54:25;5.70;99.90
4453;DHT22;2239;48.152;11.584;2024-02-21T01:56:54;5.70;99.90
4453;DHT22;2239;48.152;11.584;2024-02-21T01:59:21;5.80;99.90
4453;DHT22;2239;48.152;11.584;2024-02-21T02:01:47;5.80;99.90
4453;DHT22;2239;48.152;11.584;2024-02-21T02:04:13;5.80;99.90
4453;DHT22;2239;48.152;11.584;2024-02-21T02:06:40;5.80;99.90
4453;DHT22;2239;48.152;11.584;2024-02-21T02:09:06;5.80;99.90
4453;DHT22;2239;48.152;11.584;2024-02-21T02:11:32;5.80;99.90
4453;DHT22;2239;48.152;11.584;2024-02-21T02:13:57;5.80;99.90
4453;DHT22;2239;48.152;11.584;2024-02-21T02:16:23;5.80;99.90
4453;DHT22;2239;48.152;11.584;2024-02-21T02:18:48;5.80;99.90
4453;DHT22;2239;48.152;11.584;2024-02-21T02:21:27;5.80;99.90
4453;DHT22;2239;48.152;11.584;2024-02-21T02:23:54;5.90;99.90
4453;DHT22;2239;48.152;11.584;2024-02-21T02:26:19;5.80;99.90
4453;DHT22;2239;48.152;11.584;2024-02-21T02:28:45;5.80;99.90
4453;DHT22;2239;48.152;11.584;2024-02-21T02:31:10;5.80;99.90
4453;DHT22;2239;48.152;11.584;2024-02-21T02:33:36;5.80;99.90
4453;DHT22;2239;48.152;11.584;2024-02-21T02:36:02;5.80;99.90
4453;DHT22;2239;48.152;11.584;2024-02-21T02:38:27;5.80;99.90
4453;DHT22;2239;48.152;11.584;2024-02-21T02:40:53;5.80;99.90
4453;DHT22;2239;48.152;11.584;2024-02-21T02:43:18;5.90;99.90
4453;DHT22;2239;48.152;11.584;2024-02-21T02:45:44;5.80;99.90
4453;DHT22;2239;48.152;11.584;2024-02-21T02:48:09;5.80;99.90
4453;DHT22;2239;48.152;11.584;2024-02-21T02:50:35;5.70;99.90
4453;DHT22;2239;48.152;11.584;2024-02-21T02:53:00;5.80;99.90
4453;DHT22;2239;48.152;11.584;2024-02-21T02:55:26;5.70;99.90
4453;DHT22;2239;48.152;11.584;2024-02-21T02:57:51;5.70;99.90
4453;DHT22;2239;48.152;11.584;2024-02-21T03:00:17;5.70;99.90
4453;DHT22;2239;48.152;11.584;2024-02-21T03:02:44;5.60;99.90
4453;DHT22;2239;48.152;11.584;2024-02-21T03:05:13;5.60;99.90
4453;DHT22;2239;48.152;11.584;2024-02-21T03:07:41;5.60;99.90
4453;DHT22;2239;48.152;11.584;2024-02-21T03:10:08;5.60;99.90
4453;DHT22;2239;48.152;11.584;2024-02-21T03:12:33;5.60;99.90
4453;DHT22;2239;48.152;11.584;2024-02-21T03:14:59;5.60;99.90
4453;DHT22;2239;48.152;11.584;2024-02-21T03:17:25;5.50;99.90
4453;DHT22;2239;48.152;11.584;2024-02-21T03:19:52;5.60;99.90
4453;DHT22;2239;48.152;11.584;2024-02-21T03:22:18;5.60;99.90
4453;DHT22;2239;48.152;11.584;2024-02-21T03:24:44;5.60;99.90
4453;DHT22;2239;48.152;11.584;2024-02-21T03:27:10;5.50;99.90
4453;DHT22;2239;48.152;11.584;2024-02-21T03:29:36;5.60;99.90
4453;DHT22;2239;48.152;11.584;2024-02-21T03:32:01;5.60;99.90
4453;DHT22;2239;48.152;11.584;2024-02-21T03:34:27;5.60;99.90
4453;DHT22;2239;48.152;11.584;2024-02-21T03:36:52;5.60;99.90
4453;DHT22;2239;48.152;11.584;2024-02-21T03:39:18;5.60;99.90
4453;DHT22;2239;48.152;11.584;2024-02-21T03:41:44;5.70;99.90
4453;DHT22;2239;48.152;11.584;2024-02-21T03:44:09;5.70;99.90
4453;DHT22;2239;48.152;11.584;2024-02-21T03:46:35;5.70;99.90
4453;DHT22;2239;48.152;11.584;2024-02-21T03:49:01;5.70;99.90
4453;DHT22;2239;48.152;11.584;2024-02-21T03:51:26;5.80;99.90
4453;DHT22;2239;48.152;11.584;2024-02-21T03:53:52;5.80;99.90
4453;DHT22;2239;48.152;11.584;2024-02-21T03:56:17;5.80;99.90
4453;DHT22;2239;48.152;11.584;2024-02-21T03:58:43;5.70;99.90
4453;DHT22;2239;48.152;11.584;2024-02-21T04:01:09;5.80;99.90
4453;DHT22;2239;48.152;11.584;2024-02-21T04:03:34;5.70;99.90
4453;DHT22;2239;48.152;11.584;2024-02-21T04:06:00;5.70;99.90
4453;DHT22;2239;48.152;11.584;2024-02-21T04:08:25;5.70;99.90
4453;DHT22;2239;48.152;11.584;2024-02-21T04:10:51;5.70;99.90
4453;DHT22;2239;48.152;11.584;2024-02-21T04:13:16;5.70;99.90
4453;DHT22;2239;48.152;11.584;2024-02-21T04:15:42;5.70;99.90
4453;DHT22;2239;48.152;11.584;2024-02-21T04:18:08;5.70;99.90
4453;DHT22;2239;48.152;11.584;2024-02-21T04:20:34;5.70;99.90
4453;DHT22;2239;48.152;11.584;2024-02-21T04:22:59;5.80;99.90
4453;DHT22;2239;48.152;11.584;2024-02-21T04:25:25;5.80;99.90
4453;DHT22;2239;48.152;11.584;2024-02-21T04:27:51;5.80;99.90
4453;DHT22;2239;48.152;11.584;2024-02-21T04:30:17;5.70;99.90
4453;DHT22;2239;48.152;11.584;2024-02-21T04:32:43;5.70;99.90
4453;DHT22;2239;48.152;11.584;2024-02-21T04:35:08;5.70;99.90
4453;DHT22;2239;48.152;11.584;2024-02-21T04:37:34;5.70;99.90
4453;DHT22;2239;48.152;11.584;2024-02-21T04:40:00;5.70;99.90
4453;DHT22;2239;48.152;11.584;2024-02-21T04:42:26;5.70;99.90
4453;DHT22;2239;48.152;11.584;2024-02-21T04:44:51;5.70;99.90
4453;DHT22;2239;48.152;11.584;2024-02-21T04:47:17;5.70;99.90
4453;DHT22;2239;48.152;11.584;2024-02-21T04:49:42;5.60;99.90
4453;DHT22;2239;48.152;11.584;2024-02-21T04:52:08;5.60;99.90
4453;DHT22;2239;48.152;11.584;2024-02-21T04:54:34;5.60;99.90
4453;DHT22;2239;48.152;11.584;2024-02-21T04:57:01;5.50;99.90
4453;DHT22;2239;48.152;11.584;2024-02-21T04:59:26;5.50;99.90
4453;DHT22;2239;48.152;11.584;2024-02-21T05:01:52;5.50;99.90
4453;DHT22;2239;48.152;11.584;2024-02-21T05:04:18;5.50;99.90
4453;DHT22;2239;48.152;11.584;2024-02-21T05:06:43;5.40;99.90
4453;DHT22;2239;48.152;11.584;2024-02-21T05:09:09;5.40;99.90
4453;DHT22;2239;48.152;11.584;2024-02-21T05:11:37;5.40;99.90
4453;DHT22;2239;48.152;11.584;2024-02-21T05:14:04;5.40;99.90
4453;DHT22;2239;48.152;11.584;2024-02-21T05:16:30;5.40;99.90
4453;DHT22;2239;48.152;11.584;2024-02-21T05:18:55;5.30;99.90
4453;DHT22;2239;48.152;11.584;2024-02-21T05:21:23;5.30;99.90
4453;DHT22;2239;48.152;11.584;2024-02-21T05:23:52;5.30;99.90
4453;DHT22;2239;48.152;11.584;2024-02-21T05:26:24;5.20;99.90
4453;DHT22;2239;48.152;11.584;2024-02-21T05:28:50;5.10;99.90
4453;DHT22;2239;48.152;11.584;2024-02-21T05:31:19;5.00;99.90
4453;DHT22;2239;48.152;11.584;2024-02-21T05:33:45;5.00;99.90
4453;DHT22;2239;48.152;11.584;2024-02-21T05:36:11;4.90;99.90
4453;DHT22;2239;48.152;11.584;2024-02-21T05:38:37;4.90;99.90
4453;DHT22;2239;48.152;11.584;2024-02-21T05:41:03;4.80;99.90
4453;DHT22;2239;48.152;11.584;2024-02-21T05:43:29;4.70;99.90
4453;DHT22;2239;48.152;11.584;2024-02-21T05:45:54;4.70;99.90
4453;DHT22;2239;48.152;11.584;2024-02-21T05:48:21;4.70;99.90
4453;DHT22;2239;48.152;11.584;2024-02-21T05:50:47;4.70;99.90
4453;DHT22;2239;48.152;11.584;2024-02-21T05:53:12;4.60;99.90
4453;DHT22;2239;48.152;11.584;2024-02-21T05:55:38;4.60;99.90
4453;DHT22;2239;48.152;11.584;2024-02-21T05:58:04;4.60;99.90
4453;DHT22;2239;48.152;11.584;2024-02-21T06:00:31;4.50;99.90
4453;DHT22;2239;48.152;11.584;2024-02-21T06:02:57;4.60;99.90
4453;DHT22;2239;48.152;11.584;2024-02-21T06:05:22;4.50;99.90
4453;DHT22;2239;48.152;11.584;2024-02-21T06:07:48;4.50;99.90
4453;DHT22;2239;48.152;11.584;2024-02-21T06:10:15;4.40;99.90
4453;DHT22;2239;48.152;11.584;2024-02-21T06:12:40;4.40;99.90
4453;DHT22;2239;48.152;11.584;2024-02-21T06:15:07;4.40;99.90
4453;DHT22;2239;48.152;11.584;2024-02-21T06:17:32;4.40;99.90
4453;DHT22;2239;48.152;11.584;2024-02-21T06:19:58;4.40;99.90
4453;DHT22;2239;48.152;11.584;2024-02-21T06:22:24;4.40;99.90
4453;DHT22;2239;48.152;11.584;2024-02-21T06:24:50;4.40;99.90
4453;DHT22;2239;48.152;11.584;2024-02-21T06:27:16;4.50;99.90
4453;DHT22;2239;48.152;11.584;2024-02-21T06:29:42;4.50;99.90
4453;DHT22;2239;48.152;11.584;2024-02-21T06:32:08;4.70;99.90
4453;DHT22;2239;48.152;11.584;2024-02-21T06:34:33;4.90;99.90
4453;DHT22;2239;48.152;11.584;2024-02-21T06:36:59;5.00;99.90
4453;DHT22;2239;48.152;11.584;2024-02-21T06:39:24;5.00;99.90
4453;DHT22;2239;48.152;11.584;2024-02-21T06:41:50;5.00;99.90
4453;DHT22;2239;48.152;11.584;2024-02-21T06:44:17;4.90;99.90
4453;DHT22;2239;48.152;11.584;2024-02-21T06:46:43;5.00;99.90
4453;DHT22;2239;48.152;11.584;2024-02-21T06:49:08;5.00;99.90
4453;DHT22;2239;48.152;11.584;2024-02-21T06:51:34;5.20;99.90
4453;DHT22;2239;48.152;11.584;2024-02-21T06:54:00;5.50;99.90
4453;DHT22;2239;48.152;11.584;2024-02-21T06:56:26;5.90;99.90
4453;DHT22;2239;48.152;11.584;2024-02-21T06:58:55;6.00;99.90
4453;DHT22;2239;48.152;11.584;2024-02-21T07:01:21;5.90;99.90
4453;DHT22;2239;48.152;11.584;2024-02-21T07:03:46;5.70;99.90
4453;DHT22;2239;48.152;11.584;2024-02-21T07:06:12;5.50;99.90
4453;DHT22;2239;48.152;11.584;2024-02-21T07:08:38;5.40;99.90
4453;DHT22;2239;48.152;11.584;2024-02-21T07:11:04;5.30;99.90
4453;DHT22;2239;48.152;11.584;2024-02-21T07:13:30;5.40;99.90
4453;DHT22;2239;48.152;11.584;2024-02-21T07:15:55;5.40;99.90
4453;DHT22;2239;48.152;11.584;2024-02-21T07:18:21;5.40;99.90
4453;DHT22;2239;48.152;11.584;2024-02-21T07:20:46;5.40;99.90
4453;DHT22;2239;48.152;11.584;2024-02-21T07:23:12;5.40;99.90
4453;DHT22;2239;48.152;11.584;2024-02-21T07:25:38;5.50;99.90
4453;DHT22;2239;48.152;11.584;2024-02-21T07:28:05;5.50;99.90
4453;DHT22;2239;48.152;11.584;2024-02-21T07:30:30;5.50;99.90
4453;DHT22;2239;48.152;11.584;2024-02-21T07:32:56;5.50;99.90
4453;DHT22;2239;48.152;11.584;2024-02-21T07:35:21;5.60;99.90
4453;DHT22;2239;48.152;11.584;2024-02-21T07:37:47;5.60;99.90
4453;DHT22;2239;48.152;11.584;2024-02-21T07:40:13;5.70;99.80
4453;DHT22;2239;48.152;11.584;2024-02-21T07:42:39;5.70;99.70
4453;DHT22;2239;48.152;11.584;2024-02-21T07:45:05;5.70;99.70
4453;DHT22;2239;48.152;11.584;2024-02-21T07:47:31;5.70;99.50
4453;DHT22;2239;48.152;11.584;2024-02-21T07:49:56;5.80;99.20
4453;DHT22;2239;48.152;11.584;2024-02-21T07:52:22;5.80;98.80
4453;DHT22;2239;48.152;11.584;2024-02-21T07:54:47;5.80;98.90
4453;DHT22;2239;48.152;11.584;2024-02-21T07:57:13;6.00;98.60
4453;DHT22;2239;48.152;11.584;2024-02-21T07:59:38;6.20;98.30
4453;DHT22;2239;48.152;11.584;2024-02-21T08:02:04;7.00;98.00
4453;DHT22;2239;48.152;11.584;2024-02-21T08:04:32;7.50;97.10
4453;DHT22;2239;48.152;11.584;2024-02-21T08:06:58;8.10;95.50
4453;DHT22;2239;48.152;11.584;2024-02-21T08:09:28;8.50;94.40
4453;DHT22;2239;48.152;11.584;2024-02-21T08:11:54;8.90;93.50
4453;DHT22;2239;48.152;11.584;2024-02-21T08:14:20;9.70;92.70
4453;DHT22;2239;48.152;11.584;2024-02-21T08:16:46;10.20;90.30
4453;DHT22;2239;48.152;11.584;2024-02-21T08:19:11;10.80;88.90
4453;DHT22;2239;48.152;11.584;2024-02-21T08:21:37;11.20;86.40
4453;DHT22;2239;48.152;11.584;2024-02-21T08:24:03;11.80;84.80
4453;DHT22;2239;48.152;11.584;2024-02-21T08:26:28;12.30;81.40
4453;DHT22;2239;48.152;11.584;2024-02-21T08:28:59;12.00;76.50
4453;DHT22;2239;48.152;11.584;2024-02-21T08:31:26;11.40;78.10
4453;DHT22;2239;48.152;11.584;2024-02-21T08:33:59;11.40;77.70
4453;DHT22;2239;48.152;11.584;2024-02-21T08:36:31;11.80;78.10
4453;DHT22;2239;48.152;11.584;2024-02-21T08:38:58;12.50;76.50
4453;DHT22;2239;48.152;11.584;2024-02-21T08:41:26;13.10;73.90
4453;DHT22;2239;48.152;11.584;2024-02-21T08:43:53;13.50;71.60
4453;DHT22;2239;48.152;11.584;2024-02-21T08:46:22;13.60;70.50
4453;DHT22;2239;48.152;11.584;2024-02-21T08:48:50;14.10;69.40
4453;DHT22;2239;48.152;11.584;2024-02-21T08:51:17;14.20;66.60
4453;DHT22;2239;48.152;11.584;2024-02-21T08:53:43;14.30;65.40
4453;DHT22;2239;48.152;11.584;2024-02-21T08:56:09;14.30;64.00
4453;DHT22;2239;48.152;11.584;2024-02-21T08:58:36;14.00;62.00
4453;DHT22;2239;48.152;11.584;2024-02-21T09:01:03;13.70;63.10
4453;DHT22;2239;48.152;11.584;2024-02-21T09:03:31;14.00;63.70
4453;DHT22;2239;48.152;11.584;2024-02-21T09:05:57;13.90;61.00
4453;DHT22;2239;48.152;11.584;2024-02-21T09:08:22;14.20;63.20
4453;DHT22;2239;48.152;11.584;2024-02-21T09:10:49;14.60;60.70
4453;DHT22;2239;48.152;11.584;2024-02-21T09:13:15;14.70;59.90
4453;DHT22;2239;48.152;11.584;2024-02-21T09:15:40;14.70;58.10
4453;DHT22;2239;48.152;11.584;2024-02-21T09:18:06;14.90;59.40
4453;DHT22;2239;48.152;11.584;2024-02-21T09:20:32;14.80;58.10
4453;DHT22;2239;48.152;11.584;2024-02-21T09:22:57;15.20;57.60
4453;DHT22;2239;48.152;11.584;2024-02-21T09:25:23;15.30;56.40
4453;DHT22;2239;48.152;11.584;2024-02-21T09:27:48;15.30;55.60
4453;DHT22;2239;48.152;11.584;2024-02-21T09:30:14;15.40;56.30
4453;DHT22;2239;48.152;11.584;2024-02-21T09:32:39;15.60;54.70
4453;DHT22;2239;48.152;11.584;2024-02-21T09:35:05;16.00;54.40
4453;DHT22;2239;48.152;11.584;2024-02-21T09:37:31;16.10;52.70
4453;DHT22;2239;48.152;11.584;2024-02-21T09:39:57;16.10;53.80
4453;DHT22;2239;48.152;11.584;2024-02-21T09:42:46;16.20;52.50
4453;DHT22;2239;48.152;11.584;2024-02-21T09:50:29;17.00;50.70
4453;DHT22;2239;48.152;11.584;2024-02-21T09:52:58;17.40;49.60
4453;DHT22;2239;48.152;11.584;2024-02-21T09:55:24;17.60;48.20
4453;DHT22;2239;48.152;11.584;2024-02-21T09:57:51;17.60;48.80
4453;DHT22;2239;48.152;11.584;2024-02-21T10:00:17;17.80;47.80
4453;DHT22;2239;48.152;11.584;2024-02-21T10:02:48;18.10;47.50
4453;DHT22;2239;48.152;11.584;2024-02-21T10:05:14;18.20;46.20
4453;DHT22;2239;48.152;11.584;2024-02-21T10:07:40;18.40;46.60
4453;DHT22;2239;48.152;11.584;2024-02-21T10:10:06;18.50;43.60
4453;DHT22;2239;48.152;11.584;2024-02-21T10:12:32;18.60;42.60
4453;DHT22;2239;48.152;11.584;2024-02-21T10:15:05;18.20;41.70
4453;DHT22;2239;48.152;11.584;2024-02-21T10:17:34;18.00;42.80
4453;DHT22;2239;48.152;11.584;2024-02-21T10:20:12;17.90;42.30
4453;DHT22;2239;48.152;11.584;2024-02-21T10:22:39;18.00;42.70
4453;DHT22;2239;48.152;11.584;2024-02-21T10:25:12;18.00;41.10
4453;DHT22;2239;48.152;11.584;2024-02-21T10:27:40;18.00;41.50
4453;DHT22;2239;48.152;11.584;2024-02-21T10:30:07;18.00;41.50
4453;DHT22;2239;48.152;11.584;2024-02-21T10:32:33;18.00;40.80
4453;DHT22;2239;48.152;11.584;2024-02-21T10:35:03;17.90;40.20
4453;DHT22;2239;48.152;11.584;2024-02-21T10:37:32;17.80;40.60
4453;DHT22;2239;48.152;11.584;2024-02-21T10:39:57;17.60;41.00
4453;DHT22;2239;48.152;11.584;2024-02-21T10:42:23;17.60;41.40
4453;DHT22;2239;48.152;11.584;2024-02-21T10:44:51;17.50;40.00
4453;DHT22;2239;48.152;11.584;2024-02-21T10:47:19;17.40;39.60
4453;DHT22;2239;48.152;11.584;2024-02-21T10:49:49;17.20;39.90
4453;DHT22;2239;48.152;11.584;2024-02-21T10:55:21;16.20;40.80
4453;DHT22;2239;48.152;11.584;2024-02-21T10:57:51;16.20;40.50
4453;DHT22;2239;48.152;11.584;2024-02-21T11:00:18;16.50;42.00
4453;DHT22;2239;48.152;11.584;2024-02-21T11:02:45;16.80;40.10
4453;DHT22;2239;48.152;11.584;2024-02-21T11:05:11;17.10;40.20
4453;DHT22;2239;48.152;11.584;2024-02-21T11:07:38;17.40;40.30
4453;DHT22;2239;48.152;11.584;2024-02-21T11:10:04;17.60;39.60
4453;DHT22;2239;48.152;11.584;2024-02-21T11:12:33;17.70;39.00
4453;DHT22;2239;48.152;11.584;2024-02-21T11:15:05;17.90;39.80
4453;DHT22;2239;48.152;11.584;2024-02-21T11:17:31;18.30;38.00
4453;DHT22;2239;48.152;11.584;2024-02-21T11:19:57;18.50;37.00
4453;DHT22;2239;48.152;11.584;2024-02-21T11:22:24;18.20;36.20
4453;DHT22;2239;48.152;11.584;2024-02-21T11:24:54;18.30;37.10
4453;DHT22;2239;48.152;11.584;2024-02-21T11:27:22;18.50;38.70
4453;DHT22;2239;48.152;11.584;2024-02-21T11:29:55;18.40;35.10
4453;DHT22;2239;48.152;11.584;2024-02-21T11:32:21;18.40;34.20
4453;DHT22;2239;48.152;11.584;2024-02-21T11:35:05;18.40;34.60
4453;DHT22;2239;48.152;11.584;2024-02-21T11:37:33;18.40;34.40
4453;DHT22;2239;48.152;11.584;2024-02-21T11:39:59;18.40;35.40
4453;DHT22;2239;48.152;11.584;2024-02-21T11:42:26;18.20;32.60
4453;DHT22;2239;48.152;11.584;2024-02-21T11:44:52;17.60;32.70
4453;DHT22;2239;48.152;11.584;2024-02-21T11:47:18;17.30;33.60
4453;DHT22;2239;48.152;11.584;2024-02-21T11:49:46;16.90;33.50
4453;DHT22;2239;48.152;11.584;2024-02-21T11:52:12;16.70;33.90
4453;DHT22;2239;48.152;11.584;2024-02-21T11:54:40;16.60;32.80
4453;DHT22;2239;48.152;11.584;2024-02-21T11:57:06;16.50;33.30
4453;DHT22;2239;48.152;11.584;2024-02-21T11:59:33;16.60;34.00
4453;DHT22;2239;48.152;11.584;2024-02-21T12:01:59;16.40;32.80
4453;DHT22;2239;48.152;11.584;2024-02-21T12:04:25;16.70;34.80
4453;DHT22;2239;48.152;11.584;2024-02-21T12:06:52;16.90;33.10
4453;DHT22;2239;48.152;11.584;2024-02-21T12:09:18;16.80;32.10
4453;DHT22;2239;48.152;11.584;2024-02-21T12:11:45;17.10;34.90
4453;DHT22;2239;48.152;11.584;2024-02-21T12:14:16;17.30;32.60
4453;DHT22;2239;48.152;11.584;2024-02-21T12:16:41;17.50;31.80
4453;DHT22;2239;48.152;11.584;2024-02-21T12:19:07;17.90;31.80
4453;DHT22;2239;48.152;11.584;2024-02-21T12:21:34;18.30;29.90
4453;DHT22;2239;48.152;11.584;2024-02-21T12:24:22;18.50;30.00
4453;DHT22;2239;48.152;11.584;2024-02-21T12:26:48;18.50;28.50
4453;DHT22;2239;48.152;11.584;2024-02-21T12:29:14;18.50;29.10
4453;DHT22;2239;48.152;11.584;2024-02-21T12:31:40;18.30;28.10
4453;DHT22;2239;48.152;11.584;2024-02-21T12:34:06;18.20;28.40
4453;DHT22;2239;48.152;11.584;2024-02-21T12:36:32;18.40;29.10
4453;DHT22;2239;48.152;11.584;2024-02-21T12:39:01;18.50;28.30
4453;DHT22;2239;48.152;11.584;2024-02-21T12:41:31;18.70;28.10
4453;DHT22;2239;48.152;11.584;2024-02-21T12:44:01;19.00;29.60
4453;DHT22;2239;48.152;11.584;2024-02-21T12:46:29;19.30;27.50
4453;DHT22;2239;48.152;11.584;2024-02-21T12:48:55;19.50;26.70
4453;DHT22;2239;48.152;11.584;2024-02-21T12:51:20;18.50;25.80
4453;DHT22;2239;48.152;11.584;2024-02-21T12:53:47;18.30;27.40
4453;DHT22;2239;48.152;11.584;2024-02-21T12:56:15;18.20;28.80
4453;DHT22;2239;48.152;11.584;2024-02-21T12:58:41;18.20;27.60
4453;DHT22;2239;48.152;11.584;2024-02-21T13:01:06;18.30;28.80
4453;DHT22;2239;48.152;11.584;2024-02-21T13:03:32;18.10;27.10
4453;DHT22;2239;48.152;11.584;2024-02-21T13:05:57;17.90;26.60
4453;DHT22;2239;48.152;11.584;2024-02-21T13:08:24;18.00;26.70
4453;DHT22;2239;48.152;11.584;2024-02-21T13:10:50;18.10;27.70
4453;DHT22;2239;48.152;11.584;2024-02-21T13:13:15;18.20;26.90
4453;DHT22;2239;48.152;11.584;2024-02-21T13:15:41;17.70;25.70
4453;DHT22;2239;48.152;11.584;2024-02-21T13:18:10;17.60;27.00
4453;DHT22;2239;48.152;11.584;2024-02-21T13:20:36;17.60;26.80
4453;DHT22;2239;48.152;11.584;2024-02-21T13:23:02;17.60;26.70
4453;DHT22;2239;48.152;11.584;2024-02-21T13:25:28;17.40;25.40
4453;DHT22;2239;48.152;11.584;2024-02-21T13:27:54;17.30;25.70
4453;DHT22;2239;48.152;11.584;2024-02-21T13:30:19;17.10;26.50
4453;DHT22;2239;48.152;11.584;2024-02-21T13:32:45;17.00;25.50
4453;DHT22;2239;48.152;11.584;2024-02-21T13:35:12;16.90;26.10
4453;DHT22;2239;48.152;11.584;2024-02-21T13:37:38;17.00;26.20
4453;DHT22;2239;48.152;11.584;2024-02-21T13:40:05;17.10;26.40
4453;DHT22;2239;48.152;11.584;2024-02-21T13:42:30;17.20;26.70
4453;DHT22;2239;48.152;11.584;2024-02-21T13:44:56;17.30;26.70
4453;DHT22;2239;48.152;11.584;2024-02-21T13:47:21;17.50;26.60
4453;DHT22;2239;48.152;11.584;2024-02-21T13:49:47;17.50;26.10
4453;DHT22;2239;48.152;11.584;2024-02-21T13:52:13;17.50;25.70
4453;DHT22;2239;48.152;11.584;2024-02-21T13:54:39;17.50;26.20
4453;DHT22;2239;48.152;11.584;2024-02-21T13:57:05;17.20;25.50
4453;DHT22;2239;48.152;11.584;2024-02-21T13:59:30;17.00;25.40
4453;DHT22;2239;48.152;11.584;2024-02-21T14:01:58;16.90;26.60
4453;DHT22;2239;48.152;11.584;2024-02-21T14:04:24;17.00;26.90
4453;DHT22;2239;48.152;11.584;2024-02-21T14:06:49;17.10;26.50
4453;DHT22;2239;48.152;11.584;2024-02-21T14:09:15;17.20;26.60
4453;DHT22;2239;48.152;11.584;2024-02-21T14:11:41;17.20;26.10
4453;DHT22;2239;48.152;11.584;2024-02-21T14:14:07;17.30;27.00
4453;DHT22;2239;48.152;11.584;2024-02-21T14:16:33;17.30;26.90
4453;DHT22;2239;48.152;11.584;2024-02-21T14:18:59;17.30;26.80
4453;DHT22;2239;48.152;11.584;2024-02-21T14:21:25;17.10;26.80
4453;DHT22;2239;48.152;11.584;2024-02-21T14:23:51;16.80;27.10
4453;DHT22;2239;48.152;11.584;2024-02-21T14:26:18;16.70;27.10
4453;DHT22;2239;48.152;11.584;2024-02-21T14:28:43;16.50;27.40
4453;DHT22;2239;48.152;11.584;2024-02-21T14:31:09;16.50;28.00
4453;DHT22;2239;48.152;11.584;2024-02-21T14:33:35;16.70;28.50
4453;DHT22;2239;48.152;11.584;2024-02-21T14:36:02;16.80;27.60
4453;DHT22;2239;48.152;11.584;2024-02-21T14:38:30;16.90;27.80
4453;DHT22;2239;48.152;11.584;2024-02-21T14:40:56;16.80;27.40
4453;DHT22;2239;48.152;11.584;2024-02-21T14:43:21;16.80;28.30
4453;DHT22;2239;48.152;11.584;2024-02-21T14:45:48;16.70;27.40
4453;DHT22;2239;48.152;11.584;2024-02-21T14:48:14;16.60;28.30
4453;DHT22;2239;48.152;11.584;2024-02-21T14:50:40;16.60;28.00
4453;DHT22;2239;48.152;11.584;2024-02-21T14:53:06;16.30;27.60
4453;DHT22;2239;48.152;11.584;2024-02-21T14:55:33;16.00;27.40
4453;DHT22;2239;48.152;11.584;2024-02-21T14:57:59;16.00;28.10
4453;DHT22;2239;48.152;11.584;2024-02-21T15:00:24;16.00;28.50
4453;DHT22;2239;48.152;11.584;2024-02-21T15:02:56;16.20;29.60
4453;DHT22;2239;48.152;11.584;2024-02-21T15:05:22;16.10;27.90
4453;DHT22;2239;48.152;11.584;2024-02-21T15:07:48;16.10;28.10
4453;DHT22;2239;48.152;11.584;2024-02-21T15:10:19;16.10;28.30
4453;DHT22;2239;48.152;11.584;2024-02-21T15:12:48;16.00;27.90
4453;DHT22;2239;48.152;11.584;2024-02-21T15:15:14;16.00;28.10
4453;DHT22;2239;48.152;11.584;2024-02-21T15:17:40;15.80;28.10
4453;DHT22;2239;48.152;11.584;2024-02-21T15:20:06;15.80;28.40
4453;DHT22;2239;48.152;11.584;2024-02-21T15:22:35;15.50;28.30
4453;DHT22;2239;48.152;11.584;2024-02-21T15:25:04;15.40;28.90
4453;DHT22;2239;48.152;11.584;2024-02-21T15:27:30;15.40;29.20
4453;DHT22;2239;48.152;11.584;2024-02-21T15:29:56;15.40;29.50
4453;DHT22;2239;48.152;11.584;2024-02-21T15:32:23;15.40;29.80
4453;DHT22;2239;48.152;11.584;2024-02-21T15:34:49;15.30;29.50
4453;DHT22;2239;48.152;11.584;2024-02-21T15:37:15;15.10;29.50
4453;DHT22;2239;48.152;11.584;2024-02-21T15:39:41;15.00;29.50
4453;DHT22;2239;48.152;11.584;2024-02-21T15:42:09;14.90;29.80
4453;DHT22;2239;48.152;11.584;2024-02-21T15:44:35;14.80;30.10
4453;DHT22;2239;48.152;11.584;2024-02-21T15:47:01;14.70;29.90
4453;DHT22;2239;48.152;11.584;2024-02-21T15:49:26;14.60;30.20
4453;DHT22;2239;48.152;11.584;2024-02-21T15:51:52;14.50;30.80
4453;DHT22;2239;48.152;11.584;2024-02-21T15:54:19;14.50;30.90
4453;DHT22;2239;48.152;11.584;2024-02-21T15:56:44;14.50;31.00